Ash, North Carolina
Current Conditions -  °F | °C
As of 12:53 PM on Friday 31 Oct 2014 (Local Time) from KCRE Reporting Station
Clear Clear  
Wind Chill: 66°   Ceiling: Unl
Heat Index: 66°   Visibility: 10mi
Dew Point: 44°   Wind: 15mph
Humidity: 45%   Direction: 50°NE
Pressure: 29.84"   Gusts: NA
Location:  34.04°N, 78.52°W
Report Text: KCRE 311653Z 05013KT 10SM CLR 19/07 A2984 RMK AO1 SLP105 T01890067
Loading
Personal Weather Stations






























Interactive Weather Map
Tropical Storm Tracking
New forecast layout! Learn more

10-Day Weather Forecast

Advertisements
Track Severe Weather on mobile